createdAt,value
2019-04-05T00:00:57.357Z,997.27
2019-04-05T00:01:57.343Z,997.27
2019-04-05T00:02:57.331Z,997.29
2019-04-05T00:03:57.307Z,997.27
2019-04-05T00:04:57.288Z,997.26
2019-04-05T00:05:57.268Z,997.24
2019-04-05T00:06:57.256Z,997.28
2019-04-05T00:07:57.253Z,997.24
2019-04-05T00:08:57.214Z,997.29
2019-04-05T00:09:57.199Z,997.29
2019-04-05T00:10:57.183Z,997.28
2019-04-05T00:11:57.165Z,997.31
2019-04-05T00:12:57.146Z,997.31
2019-04-05T00:13:57.127Z,997.33
2019-04-05T00:14:57.109Z,997.32
2019-04-05T00:15:57.095Z,997.30
2019-04-05T00:16:57.076Z,997.33
2019-04-05T00:17:57.057Z,997.36
2019-04-05T00:18:57.043Z,997.34
2019-04-05T00:19:57.024Z,997.33
2019-04-05T00:20:57.006Z,997.36
2019-04-05T00:21:56.987Z,997.37
2019-04-05T00:22:56.970Z,997.34
2019-04-05T00:23:56.949Z,997.38
2019-04-05T00:24:56.935Z,997.42
2019-04-05T00:25:56.921Z,997.38
2019-04-05T00:26:56.899Z,997.37
2019-04-05T00:27:56.881Z,997.36
2019-04-05T00:28:56.866Z,997.39
2019-04-05T00:29:56.846Z,997.36
2019-04-05T00:30:56.828Z,997.36
2019-04-05T00:31:56.807Z,997.35
2019-04-05T00:32:56.790Z,997.37
2019-04-05T00:33:56.775Z,997.38
2019-04-05T00:34:56.757Z,997.36
2019-04-05T00:35:56.735Z,997.37
2019-04-05T00:36:56.720Z,997.32
2019-04-05T00:37:56.706Z,997.35
2019-04-05T00:38:56.687Z,997.37
2019-04-05T00:39:56.669Z,997.40
2019-04-05T00:40:56.662Z,997.39
2019-04-05T00:41:56.631Z,997.34
2019-04-05T00:42:56.624Z,997.37
2019-04-05T00:43:56.595Z,997.39
2019-04-05T00:44:56.577Z,997.43
2019-04-05T00:45:56.561Z,997.41
2019-04-05T00:46:56.545Z,997.42
2019-04-05T00:47:56.525Z,997.40
2019-04-05T00:48:56.508Z,997.41
2019-04-05T00:49:56.495Z,997.39
2019-04-05T00:50:56.473Z,997.42
2019-04-05T00:51:56.455Z,997.41
2019-04-05T00:52:56.439Z,997.45
2019-04-05T00:53:56.419Z,997.52
2019-04-05T00:54:56.398Z,997.46
2019-04-05T00:55:56.382Z,997.50
2019-04-05T00:56:56.366Z,997.54
2019-04-05T00:57:56.342Z,997.49
2019-04-05T00:58:56.329Z,997.53
2019-04-05T00:59:56.310Z,997.55
2019-04-05T01:00:56.291Z,997.54
2019-04-05T01:01:56.275Z,997.52
2019-04-05T01:02:56.255Z,997.50
2019-04-05T01:03:56.246Z,997.51
2019-04-05T01:04:56.222Z,997.47
2019-04-05T01:05:56.200Z,997.50
2019-04-05T01:06:56.183Z,997.45
2019-04-05T01:07:56.169Z,997.52
2019-04-05T01:08:56.152Z,997.52
2019-04-05T01:09:56.126Z,997.53
2019-04-05T01:10:56.112Z,997.52
2019-04-05T01:11:56.093Z,997.55
2019-04-05T01:12:56.076Z,997.53
2019-04-05T01:13:56.056Z,997.54
2019-04-05T01:14:56.035Z,997.60
2019-04-05T01:15:56.015Z,997.59
2019-04-05T01:16:56.001Z,997.60
2019-04-05T01:17:55.983Z,997.61
2019-04-05T01:18:55.967Z,997.61
2019-04-05T01:19:55.959Z,997.63
2019-04-05T01:20:55.931Z,997.64
2019-04-05T01:21:55.910Z,997.63
2019-04-05T01:22:55.890Z,997.64
2019-04-05T01:23:55.873Z,997.68
2019-04-05T01:24:55.860Z,997.71
2019-04-05T01:25:55.838Z,997.68
2019-04-05T01:26:55.817Z,997.64
2019-04-05T01:27:55.799Z,997.70
2019-04-05T01:28:55.788Z,997.69
2019-04-05T01:29:55.765Z,997.68
2019-04-05T01:30:55.748Z,997.68
2019-04-05T01:31:55.733Z,997.68
2019-04-05T01:32:55.731Z,997.71
2019-04-05T01:33:55.692Z,997.72
2019-04-05T01:34:55.673Z,997.70
2019-04-05T01:35:55.656Z,997.76
2019-04-05T01:36:55.633Z,997.73
2019-04-05T01:37:55.612Z,997.74
2019-04-05T01:38:55.601Z,997.80
2019-04-05T01:39:55.576Z,997.78
2019-04-05T01:40:55.560Z,997.76
2019-04-05T01:41:55.545Z,997.78
2019-04-05T01:42:55.526Z,997.81
2019-04-05T01:43:55.503Z,997.78
2019-04-05T01:44:55.489Z,997.80
2019-04-05T01:45:55.470Z,997.83
2019-04-05T01:46:55.452Z,997.81
2019-04-05T01:47:55.432Z,997.81
2019-04-05T01:48:55.416Z,997.83
2019-04-05T01:49:55.406Z,997.83
2019-04-05T01:50:55.388Z,997.85
2019-04-05T01:51:55.357Z,997.82
2019-04-05T01:52:55.342Z,997.80
2019-04-05T01:53:55.322Z,997.85
2019-04-05T01:54:55.304Z,997.83
2019-04-05T01:55:55.289Z,997.83
2019-04-05T01:56:55.270Z,997.84
2019-04-05T01:57:55.257Z,997.84
2019-04-05T01:58:55.230Z,997.85
2019-04-05T01:59:55.210Z,997.87
2019-04-05T02:00:55.194Z,997.84
2019-04-05T02:01:55.172Z,997.84
2019-04-05T02:02:55.156Z,997.81
2019-04-05T02:03:55.144Z,997.84
2019-04-05T02:04:55.116Z,997.81
2019-04-05T02:05:55.102Z,997.84
2019-04-05T02:06:55.082Z,997.87
2019-04-05T02:07:55.069Z,997.87
2019-04-05T02:08:55.046Z,997.88
2019-04-05T02:09:55.024Z,997.93
2019-04-05T02:10:55.005Z,997.92
2019-04-05T02:11:54.988Z,997.91
2019-04-05T02:12:54.972Z,997.90
2019-04-05T02:13:54.956Z,997.95
2019-04-05T02:14:54.936Z,997.98
2019-04-05T02:16:05.705Z,997.95
2019-04-05T02:16:54.904Z,997.98
2019-04-05T02:17:54.880Z,997.98
2019-04-05T02:18:54.863Z,998.01
2019-04-05T02:19:54.840Z,998.02
2019-04-05T02:20:54.822Z,997.99
2019-04-05T02:21:54.801Z,997.99
2019-04-05T02:22:54.781Z,998.01
2019-04-05T02:23:54.765Z,998.00
2019-04-05T02:24:54.742Z,998.00
2019-04-05T02:25:54.718Z,997.99
2019-04-05T02:26:54.706Z,998.04
2019-04-05T02:27:54.688Z,998.05
2019-04-05T02:28:54.670Z,998.10
2019-04-05T02:29:54.654Z,998.09
2019-04-05T02:30:54.634Z,998.09
2019-04-05T02:31:54.616Z,998.04
2019-04-05T02:32:54.595Z,998.03
2019-04-05T02:33:54.574Z,998.01
2019-04-05T02:34:54.559Z,998.00
2019-04-05T02:35:54.541Z,998.02
2019-04-05T02:36:54.525Z,997.95
2019-04-05T02:37:54.499Z,997.97
2019-04-05T02:38:54.481Z,997.97
2019-04-05T02:39:54.464Z,997.99
2019-04-05T02:40:58.242Z,997.90
2019-04-05T02:41:54.427Z,997.93
2019-04-05T02:42:54.410Z,997.92
2019-04-05T02:43:54.395Z,997.91
2019-04-05T02:44:54.369Z,997.94
2019-04-05T02:45:54.461Z,997.93
2019-04-05T02:46:54.331Z,997.95
2019-04-05T02:47:54.317Z,997.95
2019-04-05T02:48:54.305Z,997.94
2019-04-05T02:49:54.277Z,997.95
2019-04-05T02:50:54.255Z,997.97
2019-04-05T02:51:54.236Z,997.93
2019-04-05T02:52:54.218Z,997.97
2019-04-05T02:53:54.204Z,997.93
2019-04-05T02:54:54.181Z,997.95
2019-04-05T02:55:54.159Z,997.92
2019-04-05T02:56:54.146Z,998.00
2019-04-05T02:57:54.123Z,997.98
2019-04-05T02:58:54.100Z,997.96
2019-04-05T02:59:54.084Z,997.94
2019-04-05T03:00:54.067Z,997.95
2019-04-05T03:01:54.062Z,997.97
2019-04-05T03:02:54.033Z,997.99
2019-04-05T03:03:54.010Z,997.96
2019-04-05T03:04:53.989Z,997.97
2019-04-05T03:05:53.972Z,997.91
2019-04-05T03:06:53.950Z,997.95
2019-04-05T03:07:53.931Z,997.89
2019-04-05T03:08:53.909Z,997.97
2019-04-05T03:09:53.902Z,997.96
2019-04-05T03:10:53.875Z,997.95
2019-04-05T03:11:53.865Z,997.91
2019-04-05T03:12:53.842Z,997.93
2019-04-05T03:13:53.900Z,997.94
2019-04-05T03:14:53.799Z,997.99
2019-04-05T03:15:53.792Z,998.00
2019-04-05T03:16:53.761Z,998.03
2019-04-05T03:17:53.744Z,998.02
2019-04-05T03:18:53.724Z,998.10
2019-04-05T03:19:53.707Z,998.09
2019-04-05T03:20:53.684Z,998.09
2019-04-05T03:21:53.670Z,998.10
2019-04-05T03:22:53.647Z,998.08
2019-04-05T03:23:53.633Z,998.11
2019-04-05T03:24:53.609Z,998.14
2019-04-05T03:25:53.593Z,998.13
2019-04-05T03:26:53.579Z,998.11
2019-04-05T03:27:53.550Z,998.08
2019-04-05T03:28:53.533Z,998.10
2019-04-05T03:29:53.543Z,998.13
2019-04-05T03:30:53.495Z,998.17
2019-04-05T03:31:53.494Z,998.13
2019-04-05T03:32:53.472Z,998.18
2019-04-05T03:33:53.445Z,998.19
2019-04-05T03:34:53.420Z,998.24
2019-04-05T03:35:53.403Z,998.24
2019-04-05T03:36:53.387Z,998.24
2019-04-05T03:37:53.363Z,998.31
2019-04-05T03:38:53.335Z,998.29
2019-04-05T03:39:53.321Z,998.33
2019-04-05T03:40:53.301Z,998.33
2019-04-05T03:41:53.277Z,998.32
2019-04-05T03:42:53.263Z,998.35
2019-04-05T03:43:53.242Z,998.29
2019-04-05T03:44:53.225Z,998.31
2019-04-05T03:45:53.202Z,998.32
2019-04-05T03:46:56.872Z,998.32
2019-04-05T03:47:53.176Z,998.35
2019-04-05T03:48:53.151Z,998.29
2019-04-05T03:49:53.123Z,998.33
2019-04-05T03:50:53.108Z,998.31
2019-04-05T03:51:53.088Z,998.34
2019-04-05T03:52:53.096Z,998.34
2019-04-05T03:53:53.054Z,998.33
2019-04-05T03:54:53.024Z,998.30
2019-04-05T03:55:53.010Z,998.34
2019-04-05T03:56:52.993Z,998.32
2019-04-05T03:57:52.969Z,998.32
2019-04-05T03:58:52.959Z,998.33
2019-04-05T03:59:52.931Z,998.36
2019-04-05T04:00:52.914Z,998.36
2019-04-05T04:01:52.892Z,998.36
2019-04-05T04:02:52.877Z,998.36
2019-04-05T04:03:52.880Z,998.37
2019-04-05T04:04:52.832Z,998.39
2019-04-05T04:05:52.919Z,998.41
2019-04-05T04:06:52.791Z,998.44
2019-04-05T04:07:52.771Z,998.49
2019-04-05T04:08:52.759Z,998.48
2019-04-05T04:09:52.733Z,998.46
2019-04-05T04:10:52.720Z,998.47
2019-04-05T04:11:52.696Z,998.47
2019-04-05T04:12:52.676Z,998.48
2019-04-05T04:13:52.655Z,998.44
2019-04-05T04:14:52.651Z,998.47
2019-04-05T04:15:52.626Z,998.47
2019-04-05T04:16:52.596Z,998.50
2019-04-05T04:17:52.583Z,998.50
2019-04-05T04:18:52.559Z,998.53
2019-04-05T04:19:52.544Z,998.53
2019-04-05T04:20:52.522Z,998.56
2019-04-05T04:21:52.522Z,998.58
2019-04-05T04:22:52.478Z,998.57
2019-04-05T04:23:52.465Z,998.59
2019-04-05T04:24:52.449Z,998.57
2019-04-05T04:25:52.426Z,998.60
2019-04-05T04:26:52.409Z,998.62
2019-04-05T04:27:52.382Z,998.63
2019-04-05T04:28:52.365Z,998.68
2019-04-05T04:29:52.340Z,998.67
2019-04-05T04:30:52.326Z,998.65
2019-04-05T04:31:52.315Z,998.69
2019-04-05T04:32:52.286Z,998.67
2019-04-05T04:33:52.270Z,998.74
2019-04-05T04:34:52.246Z,998.71
2019-04-05T04:35:52.226Z,998.76
2019-04-05T04:36:52.205Z,998.76
2019-04-05T04:37:52.181Z,998.80
2019-04-05T04:38:52.169Z,998.81
2019-04-05T04:39:52.150Z,998.85
2019-04-05T04:40:52.152Z,998.89
2019-04-05T04:41:52.109Z,998.92
2019-04-05T04:42:52.090Z,998.89
2019-04-05T04:43:52.073Z,998.94
2019-04-05T04:44:52.058Z,998.99
2019-04-05T04:45:52.027Z,999.00
2019-04-05T04:46:52.009Z,998.98
2019-04-05T04:47:51.995Z,999.00
2019-04-05T04:48:51.968Z,998.97
2019-04-05T04:49:51.953Z,998.96
2019-04-05T04:50:51.927Z,998.97
2019-04-05T04:51:51.918Z,999.00
2019-04-05T04:52:51.890Z,999.02
2019-04-05T04:53:51.877Z,999.01
2019-04-05T04:54:51.850Z,999.10
2019-04-05T04:55:51.834Z,999.09
2019-04-05T04:56:51.810Z,999.09
2019-04-05T04:57:51.796Z,999.10
2019-04-05T04:58:51.772Z,999.14
2019-04-05T04:59:51.748Z,999.08
2019-04-05T05:00:51.731Z,999.11
2019-04-05T05:01:51.738Z,999.09
2019-04-05T05:02:51.700Z,999.15
2019-04-05T05:03:51.675Z,999.15
2019-04-05T05:04:51.658Z,999.19
2019-04-05T05:05:51.628Z,999.21
2019-04-05T05:06:51.618Z,999.23
2019-04-05T05:07:51.598Z,999.29
2019-04-05T05:08:51.645Z,999.30
2019-04-05T05:09:51.559Z,999.26
2019-04-05T05:10:51.534Z,999.25
2019-04-05T05:11:51.518Z,999.29
2019-04-05T05:12:51.498Z,999.35
2019-04-05T05:13:51.474Z,999.29
2019-04-05T05:14:51.455Z,999.31
2019-04-05T05:15:51.435Z,999.36
2019-04-05T05:16:51.415Z,999.37
2019-04-05T05:17:58.413Z,999.32
2019-04-05T05:18:51.374Z,999.32
2019-04-05T05:19:51.354Z,999.33
2019-04-05T05:20:51.340Z,999.32
2019-04-05T05:21:51.319Z,999.35
2019-04-05T05:22:51.296Z,999.40
2019-04-05T05:23:51.277Z,999.41
2019-04-05T05:24:51.254Z,999.37
2019-04-05T05:25:51.235Z,999.40
2019-04-05T05:26:51.222Z,999.39
2019-04-05T05:27:51.205Z,999.43
2019-04-05T05:28:51.176Z,999.43
2019-04-05T05:29:51.156Z,999.47
2019-04-05T05:30:51.141Z,999.46
2019-04-05T05:31:51.124Z,999.46
2019-04-05T05:32:51.100Z,999.45
2019-04-05T05:33:51.097Z,999.42
2019-04-05T05:35:01.458Z,999.46
2019-04-05T05:35:51.037Z,999.47
2019-04-05T05:36:51.018Z,999.49
2019-04-05T05:37:50.997Z,999.52
2019-04-05T05:38:50.977Z,999.54
2019-04-05T05:39:50.958Z,999.54
2019-04-05T05:40:50.939Z,999.61
2019-04-05T05:41:50.926Z,999.61
2019-04-05T05:42:50.903Z,999.64
2019-04-05T05:43:50.887Z,999.67
2019-04-05T05:44:50.856Z,999.63
2019-04-05T05:45:50.846Z,999.67
2019-04-05T05:46:50.822Z,999.72
2019-04-05T05:47:52.432Z,999.72
2019-04-05T05:48:50.783Z,999.79
2019-04-05T05:49:50.761Z,999.79
2019-04-05T05:50:50.742Z,999.75
2019-04-05T05:51:50.731Z,999.78
2019-04-05T05:52:50.710Z,999.78
2019-04-05T05:53:50.685Z,999.81
2019-04-05T05:54:50.660Z,999.80
2019-04-05T05:55:50.653Z,999.87
2019-04-05T05:56:50.627Z,999.87
2019-04-05T05:57:54.317Z,999.90
2019-04-05T05:58:50.585Z,999.89
2019-04-05T05:59:50.571Z,999.89
2019-04-05T06:00:50.557Z,999.88
2019-04-05T06:01:50.529Z,999.91
2019-04-05T06:02:50.521Z,999.92
2019-04-05T06:03:50.488Z,999.96
2019-04-05T06:04:50.474Z,999.98
2019-04-05T06:06:03.221Z,999.96
2019-04-05T06:06:50.435Z,999.99
2019-04-05T06:07:50.418Z,999.96
2019-04-05T06:08:50.392Z,1000.00
2019-04-05T06:09:50.372Z,1000.05
2019-04-05T06:10:50.357Z,1000.02
2019-04-05T06:11:50.335Z,1000.03
2019-04-05T06:12:50.322Z,1000.00
2019-04-05T06:13:50.329Z,1000.01
2019-04-05T06:14:50.281Z,1000.04
2019-04-05T06:15:50.257Z,1000.08
2019-04-05T06:16:50.239Z,1000.11
2019-04-05T06:17:50.225Z,1000.09
2019-04-05T06:18:50.198Z,1000.08
2019-04-05T06:19:50.179Z,1000.09
2019-04-05T06:20:50.160Z,1000.13
2019-04-05T06:21:50.143Z,1000.14
2019-04-05T06:22:50.124Z,1000.17
2019-04-05T06:23:50.103Z,1000.22
2019-04-05T06:24:50.089Z,1000.25
2019-04-05T06:25:50.069Z,1000.24
2019-04-05T06:26:50.059Z,1000.29
2019-04-05T06:27:50.033Z,1000.24
2019-04-05T06:28:50.174Z,1000.26
2019-04-05T06:29:49.987Z,1000.26
2019-04-05T06:30:49.973Z,1000.23
2019-04-05T06:31:49.961Z,1000.28
2019-04-05T06:32:49.933Z,1000.24
2019-04-05T06:33:49.917Z,1000.26
2019-04-05T06:34:49.895Z,1000.29
2019-04-05T06:35:49.879Z,1000.31
2019-04-05T06:36:51.269Z,1000.29
2019-04-05T06:37:49.846Z,1000.38
2019-04-05T06:38:49.825Z,1000.34
2019-04-05T06:39:49.817Z,1000.31
2019-04-05T06:40:49.794Z,1000.42
2019-04-05T06:41:49.767Z,1000.55
2019-04-05T06:42:49.760Z,1000.57
2019-04-05T06:43:49.734Z,1000.62
2019-04-05T06:44:49.715Z,1000.74
2019-04-05T06:45:49.744Z,1000.80
2019-04-05T06:46:49.679Z,1000.79
2019-04-05T06:47:49.672Z,1000.85
2019-04-05T06:48:49.642Z,1000.86
2019-04-05T06:49:49.627Z,1000.86
2019-04-05T06:50:49.605Z,1000.95
2019-04-05T06:51:49.592Z,1000.97
2019-04-05T06:52:49.574Z,1000.96
2019-04-05T06:53:49.552Z,1000.97
2019-04-05T06:54:49.538Z,1001.06
2019-04-05T06:55:49.526Z,1001.08
2019-04-05T06:56:49.508Z,1001.06
2019-04-05T06:57:49.486Z,1001.09
2019-04-05T06:58:49.474Z,1001.10
2019-04-05T06:59:49.456Z,1001.10
2019-04-05T07:00:56.802Z,1001.12
2019-04-05T07:01:49.420Z,1001.14
2019-04-05T07:02:49.413Z,1001.09
2019-04-05T07:03:49.388Z,1001.13
2019-04-05T07:04:49.386Z,1001.12
2019-04-05T07:05:49.366Z,1001.18
2019-04-05T07:06:49.341Z,1001.24
2019-04-05T07:07:49.331Z,1001.25
2019-04-05T07:08:54.096Z,1001.19
2019-04-05T07:09:49.298Z,1001.06
2019-04-05T07:10:49.284Z,1001.02
2019-04-05T07:11:49.264Z,1001.01
2019-04-05T07:12:49.272Z,1000.97
2019-04-05T07:13:49.232Z,1000.99
2019-04-05T07:14:49.220Z,1001.07
2019-04-05T07:15:49.203Z,1001.07
2019-04-05T07:16:49.192Z,1001.12
2019-04-05T07:17:49.176Z,1001.09
2019-04-05T07:18:49.162Z,1001.10
2019-04-05T07:19:49.154Z,1001.15
2019-04-05T07:20:49.136Z,1001.13
2019-04-05T07:21:49.121Z,1001.15
2019-04-05T07:22:49.100Z,1001.17
2019-04-05T07:23:49.096Z,1001.20
2019-04-05T07:24:49.605Z,1001.21
2019-04-05T07:25:49.059Z,1001.27
2019-04-05T07:26:49.042Z,1001.24
2019-04-05T07:27:49.026Z,1001.26
2019-04-05T07:28:49.017Z,1001.27
2019-04-05T07:29:49.000Z,1001.31
2019-04-05T07:30:48.995Z,1001.46
2019-04-05T07:31:48.968Z,1001.74
2019-04-05T07:32:48.967Z,1002.24
2019-04-05T07:33:48.933Z,1002.20
2019-04-05T07:34:48.927Z,1002.22
2019-04-05T07:35:48.906Z,1002.10
2019-04-05T07:36:48.897Z,1002.11
2019-04-05T07:37:48.885Z,1002.37
2019-04-05T07:38:48.866Z,1002.51
2019-04-05T07:39:48.910Z,1002.65
2019-04-05T07:40:48.832Z,1002.52
2019-04-05T07:41:48.824Z,1002.42
2019-04-05T07:42:48.808Z,1002.35
2019-04-05T07:43:48.793Z,1002.12
2019-04-05T07:44:48.774Z,1001.59
2019-04-05T07:45:48.763Z,1001.78
2019-04-05T07:46:48.744Z,1001.67
2019-04-05T07:47:48.730Z,1001.73
2019-04-05T07:48:48.729Z,1001.78
2019-04-05T07:49:48.700Z,1001.48
2019-04-05T07:50:48.685Z,1001.69
2019-04-05T07:51:48.671Z,1002.49
2019-04-05T07:52:48.662Z,1003.90
2019-04-05T07:53:48.640Z,1002.01
2019-04-05T07:54:48.626Z,1002.31
2019-04-05T07:55:48.617Z,1001.56
2019-04-05T07:56:48.597Z,1001.59
2019-04-05T07:57:48.590Z,1001.55
2019-04-05T07:58:48.567Z,1001.55
2019-04-05T07:59:48.555Z,1001.93
2019-04-05T08:00:48.536Z,1001.80
2019-04-05T08:01:48.522Z,1001.82
2019-04-05T08:02:48.507Z,1001.84
2019-04-05T08:03:48.489Z,1001.97
2019-04-05T08:04:48.477Z,1001.68
2019-04-05T08:05:48.465Z,1001.53
2019-04-05T08:06:48.446Z,1001.53
2019-04-05T08:07:48.431Z,1001.56
2019-04-05T08:08:48.427Z,1001.63
2019-04-05T08:09:48.405Z,1001.59
2019-04-05T08:10:48.387Z,1001.54
2019-04-05T08:11:48.368Z,1001.50
2019-04-05T08:12:48.357Z,1001.55
2019-04-05T08:13:48.337Z,1001.62
2019-04-05T08:14:48.321Z,1001.54
2019-04-05T08:15:48.307Z,1001.54
2019-04-05T08:16:48.287Z,1001.49
2019-04-05T08:17:48.273Z,1001.48
2019-04-05T08:18:57.510Z,1001.51
2019-04-05T08:19:48.243Z,1001.49
2019-04-05T08:20:48.231Z,1001.51
2019-04-05T08:21:48.210Z,1001.51
2019-04-05T08:22:48.197Z,1001.46
2019-04-05T08:23:48.178Z,1001.46
2019-04-05T08:24:48.161Z,1001.50
2019-04-05T08:25:48.205Z,1001.53
2019-04-05T08:26:48.133Z,1001.51
2019-04-05T08:27:48.115Z,1001.50
2019-04-05T08:28:48.097Z,1001.49
2019-04-05T08:29:48.080Z,1001.45
2019-04-05T08:30:48.074Z,1001.51
2019-04-05T08:31:48.045Z,1001.56
2019-04-05T08:32:48.036Z,1001.57
2019-04-05T08:33:48.011Z,1001.59
2019-04-05T08:34:48.001Z,1001.55
2019-04-05T08:35:47.987Z,1001.52
2019-04-05T08:36:47.971Z,1001.54
2019-04-05T08:37:47.947Z,1001.53
2019-04-05T08:38:47.930Z,1001.56
2019-04-05T08:39:47.921Z,1001.59
2019-04-05T08:40:47.899Z,1001.63
2019-04-05T08:41:47.881Z,1001.67
2019-04-05T08:42:47.924Z,1001.63
2019-04-05T08:43:47.849Z,1001.64
2019-04-05T08:44:47.835Z,1001.68
2019-04-05T08:45:47.819Z,1001.67
2019-04-05T08:46:47.798Z,1001.66
2019-04-05T08:47:47.790Z,1001.62
2019-04-05T08:48:47.777Z,1001.64
2019-04-05T08:49:47.752Z,1001.62
2019-04-05T08:50:47.736Z,1001.61
2019-04-05T08:51:47.714Z,1001.62
2019-04-05T08:52:47.715Z,1001.65
2019-04-05T08:53:47.683Z,1001.68
2019-04-05T08:54:47.667Z,1001.67
2019-04-05T08:55:47.653Z,1001.66
2019-04-05T08:56:47.634Z,1001.65
2019-04-05T08:57:48.180Z,1001.66
2019-04-05T08:58:47.603Z,1001.69
2019-04-05T08:59:47.585Z,1001.67
2019-04-05T09:00:47.567Z,1001.65
2019-04-05T09:01:47.548Z,1001.72
2019-04-05T09:02:47.578Z,1001.75
2019-04-05T09:03:47.524Z,1001.77
2019-04-05T09:04:47.501Z,1001.71
2019-04-05T09:05:47.481Z,1001.69
2019-04-05T09:06:47.467Z,1001.73
2019-04-05T09:07:47.452Z,1001.75
2019-04-05T09:08:47.437Z,1001.71
2019-04-05T09:09:47.434Z,1001.70
2019-04-05T09:10:47.404Z,1001.75
2019-04-05T09:11:47.391Z,1001.77
2019-04-05T09:12:47.368Z,1001.75
2019-04-05T09:13:47.352Z,1001.75
2019-04-05T09:14:47.342Z,1001.75
2019-04-05T09:15:47.320Z,1001.71
2019-04-05T09:16:47.307Z,1001.78
2019-04-05T09:17:47.294Z,1001.81
2019-04-05T09:18:49.385Z,1001.84
2019-04-05T09:19:47.257Z,1001.87
2019-04-05T09:20:47.236Z,1001.87
2019-04-05T09:21:47.222Z,1001.86
2019-04-05T09:22:47.200Z,1001.85
2019-04-05T09:23:47.184Z,1001.86
2019-04-05T09:24:47.175Z,1001.90
2019-04-05T09:25:47.152Z,1001.92
2019-04-05T09:26:47.132Z,1001.95
2019-04-05T09:27:47.117Z,1001.90
2019-04-05T09:28:47.098Z,1001.91
2019-04-05T09:29:47.087Z,1001.97
2019-04-05T09:30:47.080Z,1001.94
2019-04-05T09:31:47.054Z,1001.89
2019-04-05T09:32:47.038Z,1001.93
2019-04-05T09:33:47.027Z,1001.92
2019-04-05T09:34:47.001Z,1001.97
2019-04-05T09:35:46.980Z,1001.94
2019-04-05T09:36:46.966Z,1001.93
2019-04-05T09:37:46.948Z,1001.96
2019-04-05T09:38:46.934Z,1002.00
2019-04-05T09:39:46.917Z,1001.98
2019-04-05T09:40:46.902Z,1002.03
2019-04-05T09:41:46.884Z,1002.02
2019-04-05T09:42:46.869Z,1002.06
2019-04-05T09:43:46.851Z,1002.11
2019-04-05T09:44:46.919Z,1002.09
2019-04-05T09:45:46.820Z,1002.13
2019-04-05T09:46:50.898Z,1002.07
2019-04-05T09:47:46.786Z,1002.10
2019-04-05T09:48:46.777Z,1002.18
2019-04-05T09:49:46.756Z,1002.09
2019-04-05T09:50:46.740Z,1002.10
2019-04-05T09:51:46.725Z,1002.06
2019-04-05T09:52:46.750Z,1002.10
2019-04-05T09:53:46.683Z,1002.08
2019-04-05T09:54:46.666Z,1002.09
2019-04-05T09:55:46.650Z,1002.12
2019-04-05T09:56:46.642Z,1002.07
2019-04-05T09:57:46.620Z,1002.11
2019-04-05T09:58:46.602Z,1002.13
2019-04-05T09:59:46.587Z,1002.16
2019-04-05T10:00:46.569Z,1002.20
2019-04-05T10:01:46.552Z,1002.21
2019-04-05T10:02:46.532Z,1002.26
2019-04-05T10:03:46.519Z,1002.28
2019-04-05T10:04:46.502Z,1002.27
2019-04-05T10:05:46.486Z,1002.22
2019-04-05T10:06:46.470Z,1002.23
2019-04-05T10:07:54.614Z,1002.30
2019-04-05T10:08:46.433Z,1002.27
2019-04-05T10:09:46.419Z,1002.28
2019-04-05T10:10:46.401Z,1002.42
2019-04-05T10:11:46.386Z,1002.44
2019-04-05T10:12:46.370Z,1002.47
2019-04-05T10:13:46.354Z,1002.36
2019-04-05T10:14:46.334Z,1002.41
2019-04-05T10:15:46.317Z,1002.47
2019-04-05T10:16:46.303Z,1002.47
2019-04-05T10:17:46.291Z,1002.49
2019-04-05T10:18:46.273Z,1002.41
2019-04-05T10:19:50.072Z,1002.54
2019-04-05T10:20:46.242Z,1002.62
2019-04-05T10:21:46.218Z,1002.53
2019-04-05T10:22:46.205Z,1002.58
2019-04-05T10:23:46.189Z,1002.50
2019-04-05T10:24:46.170Z,1002.52
2019-04-05T10:25:46.155Z,1002.44
2019-04-05T10:26:46.155Z,1002.43
2019-04-05T10:27:46.122Z,1002.46
2019-04-05T10:28:46.112Z,1002.49
2019-04-05T10:29:46.096Z,1002.48
2019-04-05T10:30:46.079Z,1002.50
2019-04-05T10:31:46.065Z,1002.49
2019-04-05T10:32:46.471Z,1002.45
2019-04-05T10:33:46.036Z,1002.53
2019-04-05T10:34:46.273Z,1002.52
2019-04-05T10:35:45.999Z,1002.61
2019-04-05T10:36:45.993Z,1002.56
2019-04-05T10:37:45.967Z,1002.59
2019-04-05T10:38:45.953Z,1002.66
2019-04-05T10:39:45.935Z,1002.59
2019-04-05T10:40:45.921Z,1002.61
2019-04-05T10:41:45.900Z,1002.62
2019-04-05T10:42:45.894Z,1002.65
2019-04-05T10:43:45.871Z,1002.69
2019-04-05T10:44:45.863Z,1002.61
2019-04-05T10:45:45.851Z,1002.63
2019-04-05T10:46:45.825Z,1002.75
2019-04-05T10:47:45.820Z,1002.70
2019-04-05T10:48:45.798Z,1002.83
2019-04-05T10:49:45.783Z,1002.80
2019-04-05T10:50:45.765Z,1002.70
2019-04-05T10:51:45.758Z,1003.16
2019-04-05T10:52:45.738Z,1003.64
2019-04-05T10:53:45.721Z,1003.62
2019-04-05T10:54:45.707Z,1002.84
2019-04-05T10:55:45.695Z,1002.89
2019-04-05T10:56:45.680Z,1002.80
2019-04-05T10:57:45.671Z,1002.78
2019-04-05T10:58:45.668Z,1002.77
2019-04-05T10:59:45.643Z,1002.86
2019-04-05T11:00:45.626Z,1003.51
2019-04-05T11:01:45.618Z,1002.98
2019-04-05T11:02:45.597Z,1002.87
2019-04-05T11:03:45.585Z,1003.00
2019-04-05T11:04:45.577Z,1003.47
2019-04-05T11:05:45.558Z,1003.15
2019-04-05T11:06:45.549Z,1003.21
2019-04-05T11:07:45.536Z,1003.69
2019-04-05T11:08:45.524Z,1003.56
2019-04-05T11:09:45.513Z,1002.96
2019-04-05T11:10:45.497Z,1003.13
2019-04-05T11:11:45.485Z,1003.16
2019-04-05T11:12:45.480Z,1003.33
2019-04-05T11:13:45.463Z,1003.51
2019-04-05T11:14:45.453Z,1003.33
2019-04-05T11:15:45.442Z,1003.62
2019-04-05T11:16:57.504Z,1003.48
2019-04-05T11:17:45.420Z,1003.60
2019-04-05T11:18:45.407Z,1003.24
2019-04-05T11:19:45.402Z,1003.21
2019-04-05T11:20:48.946Z,1003.40
2019-04-05T11:21:47.883Z,1003.51
2019-04-05T11:22:46.847Z,1003.44
2019-04-05T11:23:45.362Z,1003.48
2019-04-05T11:24:45.346Z,1003.51
2019-04-05T11:25:45.342Z,1003.52
2019-04-05T11:26:45.331Z,1003.32
2019-04-05T11:27:45.323Z,1003.54
2019-04-05T11:28:45.314Z,1003.56
2019-04-05T11:29:45.301Z,1003.47
2019-04-05T11:30:45.299Z,1003.53
2019-04-05T11:31:56.453Z,1003.19
2019-04-05T11:32:45.280Z,1003.13
2019-04-05T11:33:45.268Z,1003.52
2019-04-05T11:34:45.277Z,1003.50
2019-04-05T11:35:45.253Z,1003.42
2019-04-05T11:36:45.247Z,1003.49
2019-04-05T11:37:45.661Z,1003.57
2019-04-05T11:38:45.235Z,1003.60
2019-04-05T11:39:48.277Z,1003.58
2019-04-05T11:40:45.220Z,1003.60
2019-04-05T11:41:45.217Z,1003.61
2019-04-05T11:42:45.201Z,1003.65
2019-04-05T11:43:45.197Z,1003.62
2019-04-05T11:44:45.195Z,1003.58
2019-04-05T11:45:45.186Z,1003.57
2019-04-05T11:46:45.182Z,1003.64
2019-04-05T11:47:45.174Z,1003.62
2019-04-05T11:48:45.171Z,1003.60
2019-04-05T11:49:45.159Z,1003.65
2019-04-05T11:50:45.154Z,1003.61
2019-04-05T11:51:45.150Z,1003.63
2019-04-05T11:52:45.147Z,1003.61
2019-04-05T11:53:45.140Z,1003.64
2019-04-05T11:54:45.955Z,1003.62
2019-04-05T11:55:46.776Z,1003.56
2019-04-05T11:56:45.123Z,1003.29
2019-04-05T11:57:45.119Z,1003.58
2019-04-05T11:58:45.113Z,1003.53
2019-04-05T11:59:45.110Z,1003.63
2019-04-05T12:00:45.108Z,1003.56
2019-04-05T12:01:45.098Z,1003.50
2019-04-05T12:02:45.100Z,1003.58
2019-04-05T12:03:45.090Z,1003.59
2019-04-05T12:04:45.090Z,1003.58
2019-04-05T12:05:45.080Z,1003.54
2019-04-05T12:06:45.088Z,1003.56
2019-04-05T12:07:45.072Z,1003.56
2019-04-05T12:08:45.076Z,1003.53
2019-04-05T12:09:45.949Z,1003.53
2019-04-05T12:10:45.061Z,1003.58
2019-04-05T12:11:46.465Z,1003.60
2019-04-05T12:12:45.051Z,1003.49
2019-04-05T12:13:47.498Z,1003.54
2019-04-05T12:14:45.058Z,1003.53
2019-04-05T12:15:45.041Z,1003.58
2019-04-05T12:16:45.035Z,1003.63